Time;durP1;ratioP1;P1;durP2;ratioP2;P2;SDS_P1;SDS_P2;PMS_P1;PMS_P2;Temp;Humidity;BMP_temperature;BMP_pressure;BME280_temperature;BME280_humidity;BME280_pressure;Samples;Min_cycle;Max_cycle;Signal;HPM_P1;HPM_P2
2021/12/06 00:00:16;;;;;;;37.50;17.27;;;2.90;99.90;;;;;;5043469;28;20049;-82
2021/12/06 00:02:43;;;;;;;33.15;13.55;;;2.90;99.90;;;;;;5044629;28;20044;-82
2021/12/06 00:05:10;;;;;;;33.33;13.63;;;2.90;99.90;;;;;;5045121;28;20049;-82
2021/12/06 00:07:38;;;;;;;30.75;14.13;;;2.90;99.90;;;;;;5042125;28;20045;-82
2021/12/06 00:10:05;;;;;;;32.28;14.80;;;2.90;99.90;;;;;;5042247;28;20116;-82
2021/12/06 00:12:30;;;;;;;32.20;13.18;;;2.90;99.90;;;;;;5043435;28;20041;-82
2021/12/06 00:14:56;;;;;;;28.23;13.43;;;2.90;99.90;;;;;;5044659;28;20406;-82
2021/12/06 00:17:22;;;;;;;25.80;12.63;;;2.80;99.90;;;;;;5025442;28;20033;-82
2021/12/06 00:19:47;;;;;;;28.45;12.95;;;2.80;99.90;;;;;;5040668;28;20033;-82
2021/12/06 00:22:15;;;;;;;29.23;13.23;;;2.80;99.90;;;;;;5049349;28;20035;-81
2021/12/06 00:24:41;;;;;;;28.65;12.40;;;2.70;99.90;;;;;;5044065;28;20037;-81
2021/12/06 00:27:07;;;;;;;26.77;13.15;;;2.70;99.90;;;;;;5060122;28;20063;-81
2021/12/06 00:29:33;;;;;;;29.98;13.00;;;2.70;99.90;;;;;;5028571;28;20041;-81
2021/12/06 00:31:59;;;;;;;30.33;12.75;;;2.70;99.90;;;;;;5039881;28;20044;-82
2021/12/06 00:34:30;;;;;;;33.38;14.93;;;2.70;99.90;;;;;;5040799;28;20045;-82
2021/12/06 00:37:06;;;;;;;29.75;15.40;;;2.70;99.90;;;;;;5042678;28;20120;-82
2021/12/06 00:39:32;;;;;;;31.80;13.90;;;2.70;99.90;;;;;;5042052;28;20052;-82
2021/12/06 00:41:58;;;;;;;32.80;14.18;;;2.70;99.90;;;;;;5024258;28;20040;-82
2021/12/06 00:44:24;;;;;;;30.17;14.27;;;2.70;99.90;;;;;;5043279;28;20033;-82
2021/12/06 00:46:50;;;;;;;29.17;13.18;;;2.70;99.90;;;;;;5042437;28;20098;-82
2021/12/06 00:49:15;;;;;;;32.22;13.93;;;2.70;99.90;;;;;;5027251;28;20064;-82
2021/12/06 00:51:41;;;;;;;24.73;12.02;;;2.70;99.90;;;;;;5045115;28;20040;-82
2021/12/06 00:54:10;;;;;;;26.42;12.77;;;2.60;99.90;;;;;;5045819;28;20095;-81
2021/12/06 00:56:37;;;;;;;32.42;14.15;;;2.70;99.90;;;;;;5047082;28;20044;-81
2021/12/06 00:59:03;;;;;;;28.50;12.32;;;2.60;99.90;;;;;;5048294;28;20048;-82
2021/12/06 01:01:29;;;;;;;28.08;12.70;;;2.70;99.90;;;;;;5049197;28;20037;-82
2021/12/06 01:03:55;;;;;;;30.55;12.55;;;2.60;99.90;;;;;;5049222;28;20083;-82
2021/12/06 01:06:21;;;;;;;31.13;13.30;;;2.60;99.90;;;;;;5047383;28;20037;-82
2021/12/06 01:08:46;;;;;;;30.73;13.57;;;2.60;99.90;;;;;;5047906;28;20052;-82
2021/12/06 01:11:12;;;;;;;30.20;13.35;;;2.60;99.90;;;;;;5048186;28;20045;-82
2021/12/06 01:13:38;;;;;;;30.95;13.45;;;2.70;99.90;;;;;;5047828;28;20045;-82
2021/12/06 01:16:06;;;;;;;30.38;14.65;;;2.70;99.90;;;;;;5048027;28;20045;-82
2021/12/06 01:18:32;;;;;;;32.45;14.55;;;2.60;99.90;;;;;;5048017;28;20041;-82
2021/12/06 01:23:30;;;;;;;35.47;14.35;;;2.70;99.90;;;;;;5047291;28;20053;-82
2021/12/06 01:29:05;;;;;;;40.63;15.50;;;2.70;99.90;;;;;;5011318;28;20112;-82
2021/12/06 01:39:18;;;;;;;38.83;17.02;;;2.60;99.90;;;;;;5046517;28;20041;-82
2021/12/06 01:41:50;;;;;;;35.47;16.13;;;2.60;99.90;;;;;;5047609;28;20041;-82
2021/12/06 01:44:31;;;;;;;36.25;15.57;;;2.60;99.90;;;;;;5031900;28;20045;-82
2021/12/06 01:46:59;;;;;;;37.10;15.82;;;2.60;99.90;;;;;;5031487;28;20075;-82
2021/12/06 01:49:29;;;;;;;39.90;16.65;;;2.60;99.90;;;;;;5046236;28;20041;-82
2021/12/06 01:51:56;;;;;;;38.35;15.52;;;2.60;99.90;;;;;;5043764;28;20056;-82
2021/12/06 01:54:23;;;;;;;39.50;16.10;;;2.60;99.90;;;;;;5047336;28;20049;-82
2021/12/06 01:56:50;;;;;;;32.78;14.70;;;2.60;99.90;;;;;;5044429;28;20036;-82
2021/12/06 01:59:16;;;;;;;35.15;16.50;;;2.60;99.90;;;;;;5030246;28;20037;-81
2021/12/06 02:01:42;;;;;;;38.33;15.32;;;2.60;99.90;;;;;;5046009;28;20033;-82
2021/12/06 02:04:08;;;;;;;42.88;17.10;;;2.60;99.90;;;;;;5044994;28;20513;-82
2021/12/06 02:06:35;;;;;;;40.65;17.00;;;2.60;99.90;;;;;;5045401;28;20041;-82
2021/12/06 02:09:03;;;;;;;40.03;16.75;;;2.60;99.90;;;;;;5045454;28;20047;-81
2021/12/06 02:11:32;;;;;;;37.63;16.25;;;2.60;99.90;;;;;;5046157;28;20041;-82
2021/12/06 02:14:08;;;;;;;34.78;16.42;;;2.60;99.90;;;;;;5043300;28;20051;-81
2021/12/06 02:16:42;;;;;;;35.70;15.45;;;2.60;99.90;;;;;;5044080;28;20051;-81
2021/12/06 02:19:10;;;;;;;37.55;15.32;;;2.60;99.90;;;;;;5043631;28;20056;-82
2021/12/06 02:21:41;;;;;;;39.38;15.90;;;2.60;99.90;;;;;;5044505;28;20395;-82
2021/12/06 02:24:09;;;;;;;34.67;16.15;;;2.50;99.90;;;;;;5029134;28;20037;-81
2021/12/06 02:26:38;;;;;;;33.17;13.52;;;2.50;99.90;;;;;;5039182;28;20487;-79
2021/12/06 02:29:04;;;;;;;29.70;13.80;;;2.50;99.90;;;;;;5035652;28;20045;-79
2021/12/06 02:31:30;;;;;;;37.00;14.25;;;2.50;99.90;;;;;;5035724;28;20033;-79
2021/12/06 02:33:55;;;;;;;33.83;14.68;;;2.60;99.90;;;;;;5035908;28;20171;-81
2021/12/06 02:36:22;;;;;;;34.25;14.40;;;2.60;99.90;;;;;;5035908;28;20233;-79
2021/12/06 02:38:48;;;;;;;33.38;12.50;;;2.50;99.90;;;;;;5035339;28;20048;-79
2021/12/06 02:41:15;;;;;;;30.67;13.88;;;2.60;99.90;;;;;;5018915;28;20037;-79
2021/12/06 02:43:41;;;;;;;24.67;11.38;;;2.60;99.90;;;;;;5035662;28;20463;-79
2021/12/06 02:46:07;;;;;;;30.10;12.52;;;2.60;99.90;;;;;;5018650;28;20080;-79
2021/12/06 02:48:33;;;;;;;30.55;12.23;;;2.60;99.90;;;;;;5035329;28;20102;-79
2021/12/06 02:51:01;;;;;;;29.77;12.95;;;2.60;99.90;;;;;;5034881;28;20045;-79
2021/12/06 02:53:32;;;;;;;29.77;12.50;;;2.50;99.90;;;;;;5035128;28;20088;-79
2021/12/06 02:56:05;;;;;;;29.30;13.93;;;2.50;99.90;;;;;;5018588;28;20041;-79
2021/12/06 03:01:10;;;;;;;28.30;13.20;;;2.60;99.90;;;;;;5035071;28;20052;-79
2021/12/06 03:03:37;;;;;;;33.47;13.43;;;2.60;99.90;;;;;;5034985;28;20488;-79
2021/12/06 03:06:03;;;;;;;33.53;13.75;;;2.50;99.90;;;;;;5035196;28;20053;-80
2021/12/06 03:08:47;;;;;;;31.02;13.10;;;2.50;99.90;;;;;;5034856;28;20051;-79
2021/12/06 03:11:23;;;;;;;31.30;12.27;;;2.60;99.90;;;;;;5035027;28;20050;-80
2021/12/06 03:13:49;;;;;;;27.48;12.52;;;2.50;99.90;;;;;;5034253;28;20041;-79
2021/12/06 03:16:15;;;;;;;32.70;13.13;;;2.50;99.90;;;;;;5035061;28;20097;-79
2021/12/06 03:18:46;;;;;;;31.05;13.15;;;2.50;99.90;;;;;;5035531;28;20045;-81
2021/12/06 03:21:12;;;;;;;31.20;13.60;;;2.60;99.90;;;;;;5041166;28;20045;-81
2021/12/06 03:23:38;;;;;;;30.08;13.50;;;2.60;99.90;;;;;;5041029;28;20119;-81
2021/12/06 03:26:04;;;;;;;37.88;14.60;;;2.50;99.90;;;;;;5040521;28;20036;-81
2021/12/06 03:28:34;;;;;;;39.53;14.57;;;2.50;99.90;;;;;;5040257;28;20044;-81
2021/12/06 03:30:59;;;;;;;32.83;13.02;;;2.50;99.90;;;;;;5041099;28;20052;-81
2021/12/06 03:33:25;;;;;;;36.55;14.13;;;2.60;99.90;;;;;;5040263;28;20500;-80
2021/12/06 03:35:51;;;;;;;38.20;15.77;;;2.60;99.90;;;;;;5024307;28;20047;-81
2021/12/06 03:38:16;;;;;;;32.85;14.10;;;2.60;99.90;;;;;;5023834;28;20408;-81
2021/12/06 03:40:42;;;;;;;33.30;12.80;;;2.50;99.90;;;;;;5040634;28;20033;-81
2021/12/06 03:43:07;;;;;;;37.90;14.05;;;2.50;99.90;;;;;;5040040;28;20399;-81
2021/12/06 03:45:37;;;;;;;37.40;14.52;;;2.50;99.90;;;;;;5040734;28;20051;-81
2021/12/06 03:48:04;;;;;;;39.83;15.10;;;2.50;99.90;;;;;;5040911;28;20148;-81
2021/12/06 03:50:30;;;;;;;37.88;15.98;;;2.60;99.90;;;;;;5041568;28;20147;-80
2021/12/06 03:52:55;;;;;;;34.92;14.07;;;2.60;99.90;;;;;;5039866;28;20071;-80
2021/12/06 03:55:21;;;;;;;39.63;16.08;;;2.60;99.90;;;;;;5024269;28;20617;-80
2021/12/06 03:57:46;;;;;;;39.40;14.90;;;2.60;99.90;;;;;;5040100;28;20043;-81
2021/12/06 04:00:13;;;;;;;33.17;14.85;;;2.60;99.90;;;;;;5040047;28;20381;-80
2021/12/06 04:02:40;;;;;;;35.20;15.02;;;2.60;99.90;;;;;;5040475;28;20055;-80
2021/12/06 04:05:06;;;;;;;37.28;14.75;;;2.50;99.90;;;;;;5039862;28;20049;-81
2021/12/06 04:07:32;;;;;;;37.85;14.77;;;2.50;99.90;;;;;;5040761;28;20487;-81
2021/12/06 04:09:57;;;;;;;42.63;15.77;;;2.60;99.90;;;;;;5039646;28;20045;-81
2021/12/06 04:12:23;;;;;;;38.80;16.15;;;2.60;99.90;;;;;;5040192;28;20105;-80
2021/12/06 04:14:49;;;;;;;47.70;17.45;;;2.60;99.90;;;;;;5040582;28;20051;-80
2021/12/06 04:17:15;;;;;;;46.63;17.17;;;2.60;99.90;;;;;;5040644;28;20072;-82
2021/12/06 04:19:42;;;;;;;49.90;18.58;;;2.60;99.90;;;;;;5040486;28;20041;-81
2021/12/06 04:22:09;;;;;;;46.58;16.27;;;2.60;99.90;;;;;;5040822;28;20372;-81
2021/12/06 04:24:35;;;;;;;44.92;16.88;;;2.60;99.90;;;;;;5024905;28;20053;-81
2021/12/06 04:27:12;;;;;;;40.20;15.57;;;2.60;99.90;;;;;;5027396;28;20041;-81
2021/12/06 04:29:38;;;;;;;40.08;15.55;;;2.60;99.90;;;;;;5026968;28;20491;-81
2021/12/06 04:32:03;;;;;;;46.30;16.75;;;2.60;99.90;;;;;;5043729;28;20091;-81
2021/12/06 04:34:29;;;;;;;47.28;16.80;;;2.60;99.90;;;;;;5027103;28;20037;-80
2021/12/06 04:36:55;;;;;;;41.35;14.70;;;2.60;99.90;;;;;;5044039;28;20048;-81
2021/12/06 04:39:21;;;;;;;41.33;15.40;;;2.60;99.90;;;;;;5043804;28;20037;-82
2021/12/06 04:41:47;;;;;;;42.67;17.70;;;2.60;99.90;;;;;;5043369;28;20041;-81
2021/12/06 04:44:14;;;;;;;44.83;15.93;;;2.60;99.90;;;;;;5043676;28;20155;-81
2021/12/06 04:46:39;;;;;;;54.22;16.90;;;2.60;99.90;;;;;;5043057;28;20492;-81
2021/12/06 04:49:06;;;;;;;46.58;16.35;;;2.60;99.90;;;;;;5042845;28;20052;-81
2021/12/06 04:51:32;;;;;;;48.05;16.70;;;2.60;99.90;;;;;;5042894;28;20037;-81
2021/12/06 04:53:58;;;;;;;56.88;18.38;;;2.60;99.90;;;;;;5043031;28;20052;-81
2021/12/06 04:56:40;;;;;;;57.50;19.05;;;2.60;99.90;;;;;;5043532;28;20044;-81
2021/12/06 04:59:27;;;;;;;61.65;18.73;;;2.60;99.90;;;;;;5043082;28;20504;-81
2021/12/06 05:01:55;;;;;;;59.47;18.60;;;2.60;99.90;;;;;;5043713;28;20119;-81
2021/12/06 05:04:30;;;;;;;60.45;18.88;;;2.60;99.90;;;;;;5043351;28;20044;-80
2021/12/06 05:07:01;;;;;;;66.15;21.23;;;2.60;99.90;;;;;;5027088;28;20049;-81
2021/12/06 05:09:32;;;;;;;51.85;19.40;;;2.60;99.90;;;;;;5042513;28;20045;-81
2021/12/06 05:11:59;;;;;;;58.25;20.00;;;2.60;99.90;;;;;;5026749;28;20041;-81
2021/12/06 05:14:25;;;;;;;52.03;18.30;;;2.60;99.90;;;;;;5043067;28;20040;-80
2021/12/06 05:16:52;;;;;;;51.03;17.25;;;2.70;99.90;;;;;;5043471;28;20037;-81
2021/12/06 05:19:17;;;;;;;52.00;18.00;;;2.70;99.90;;;;;;5026912;28;20108;-81
2021/12/06 05:21:44;;;;;;;64.55;20.20;;;2.70;99.90;;;;;;5042832;28;20068;-80
2021/12/06 05:24:10;;;;;;;67.85;20.63;;;2.70;99.90;;;;;;5042562;28;20041;-80
2021/12/06 05:26:37;;;;;;;62.45;20.83;;;2.70;99.90;;;;;;5038247;28;20045;-79
2021/12/06 05:29:05;;;;;;;67.43;22.05;;;2.70;99.90;;;;;;5037740;28;20044;-79
2021/12/06 05:31:33;;;;;;;63.10;19.77;;;2.70;99.90;;;;;;5038206;28;20110;-79
2021/12/06 05:34:06;;;;;;;55.38;19.45;;;2.70;99.90;;;;;;5037791;28;20041;-79
2021/12/06 05:36:32;;;;;;;59.17;19.45;;;2.70;99.90;;;;;;5051031;28;20045;-79
2021/12/06 05:38:58;;;;;;;66.63;21.02;;;2.70;99.90;;;;;;5052916;28;20040;-79
2021/12/06 05:41:24;;;;;;;58.50;19.98;;;2.70;99.90;;;;;;5028913;28;20529;-79
2021/12/06 05:43:49;;;;;;;66.60;20.30;;;2.70;99.90;;;;;;5037803;28;20037;-79
2021/12/06 05:46:15;;;;;;;63.72;19.15;;;2.70;99.90;;;;;;5037831;28;20106;-79
2021/12/06 05:48:41;;;;;;;58.95;20.70;;;2.70;99.90;;;;;;5037921;28;20398;-80
2021/12/06 05:51:06;;;;;;;59.90;20.00;;;2.70;99.90;;;;;;5038284;28;20052;-80
2021/12/06 05:53:33;;;;;;;65.63;19.90;;;2.80;99.90;;;;;;5038639;28;20041;-79
2021/12/06 05:55:58;;;;;;;65.55;22.23;;;2.80;99.90;;;;;;5022134;28;20037;-80
2021/12/06 05:58:26;;;;;;;59.08;19.60;;;2.70;99.90;;;;;;5056158;28;20166;-79
2021/12/06 06:00:53;;;;;;;63.45;20.23;;;2.80;99.90;;;;;;5037559;28;20033;-79
2021/12/06 06:03:19;;;;;;;63.50;19.15;;;2.80;99.90;;;;;;5037716;28;20086;-79
2021/12/06 06:05:52;;;;;;;58.40;20.90;;;2.70;99.90;;;;;;5041015;28;20510;-82
2021/12/06 06:08:17;;;;;;;;;;;2.80;99.90;;;;;;5027267;28;20380;-82
2021/12/06 06:10:45;;;;;;;60.55;19.13;;;2.70;99.90;;;;;;5044380;28;19976;-82
2021/12/06 06:13:11;;;;;;;54.35;19.05;;;2.70;99.90;;;;;;5042834;28;20081;-81
2021/12/06 06:15:37;;;;;;;59.35;20.83;;;2.70;99.90;;;;;;5044598;28;20040;-82
2021/12/06 06:18:04;;;;;;;54.70;19.30;;;2.70;99.90;;;;;;5044985;28;20033;-82
2021/12/06 06:20:52;;;;;;;60.35;18.88;;;2.70;99.90;;;;;;5026916;28;20041;-82
2021/12/06 06:23:18;;;;;;;64.60;20.42;;;2.80;99.90;;;;;;5042001;28;20041;-82
2021/12/06 06:25:44;;;;;;;59.90;20.73;;;2.70;99.90;;;;;;5045317;28;20522;-81
2021/12/06 06:28:10;;;;;;;64.47;22.17;;;2.70;99.90;;;;;;5045085;28;20048;-82
2021/12/06 06:30:36;;;;;;;56.38;18.48;;;2.70;99.90;;;;;;5048382;28;20045;-82
2021/12/06 06:33:02;;;;;;;62.53;20.30;;;2.80;99.90;;;;;;5051383;28;20064;-82
2021/12/06 06:35:30;;;;;;;58.90;19.75;;;2.70;99.90;;;;;;5032486;28;20052;-81
2021/12/06 06:37:56;;;;;;;55.83;20.55;;;2.80;99.90;;;;;;5029376;28;20045;-81
2021/12/06 06:40:22;;;;;;;54.95;20.63;;;2.70;99.90;;;;;;5046721;28;20045;-82
2021/12/06 06:42:49;;;;;;;61.70;20.17;;;2.70;99.90;;;;;;5046325;28;20055;-82
2021/12/06 06:45:18;;;;;;;59.83;22.10;;;2.70;99.90;;;;;;5046564;28;20404;-82
2021/12/06 06:47:44;;;;;;;61.60;21.20;;;2.70;99.90;;;;;;5030195;28;20041;-82
2021/12/06 06:50:11;;;;;;;62.30;21.27;;;2.70;99.90;;;;;;5046859;28;20049;-82
2021/12/06 06:52:37;;;;;;;60.13;21.42;;;2.70;99.90;;;;;;5046574;28;20049;-82
2021/12/06 06:55:05;;;;;;;62.70;21.27;;;2.70;99.90;;;;;;5046513;28;20052;-82
2021/12/06 06:57:31;;;;;;;58.53;21.27;;;2.60;99.90;;;;;;5028625;28;20048;-82
2021/12/06 06:59:57;;;;;;;57.17;20.25;;;2.60;99.90;;;;;;5045553;28;20037;-82
2021/12/06 07:02:22;;;;;;;65.18;21.70;;;2.60;99.90;;;;;;5044902;28;20120;-82
2021/12/06 07:04:48;;;;;;;51.38;18.70;;;2.50;99.90;;;;;;5046333;28;20037;-81
2021/12/06 07:07:14;;;;;;;55.78;20.35;;;2.50;99.90;;;;;;5030631;28;20090;-82
2021/12/06 07:09:42;;;;;;;59.22;19.48;;;2.50;99.90;;;;;;5063750;28;20041;-82
2021/12/06 07:12:14;;;;;;;62.50;21.45;;;2.50;99.90;;;;;;5047601;28;20040;-81
2021/12/06 07:14:40;;;;;;;57.58;19.48;;;2.50;99.90;;;;;;5046800;28;20099;-82
2021/12/06 07:17:06;;;;;;;53.97;19.05;;;2.40;99.90;;;;;;5045394;28;20049;-82
2021/12/06 07:19:32;;;;;;;55.50;20.27;;;2.40;99.90;;;;;;5045123;28;20052;-82
2021/12/06 07:21:58;;;;;;;46.72;17.48;;;2.40;99.90;;;;;;5044801;28;20037;-82
2021/12/06 07:24:25;;;;;;;54.08;19.20;;;2.40;99.90;;;;;;5044455;28;20040;-82
2021/12/06 07:26:51;;;;;;;57.45;19.70;;;2.40;99.90;;;;;;5046127;28;20036;-82
2021/12/06 07:29:16;;;;;;;63.60;19.58;;;2.40;99.90;;;;;;5026936;28;20132;-81
2021/12/06 07:31:42;;;;;;;63.65;19.65;;;2.40;99.90;;;;;;5046326;28;20069;-82
2021/12/06 07:34:07;;;;;;;63.88;19.77;;;2.40;99.90;;;;;;5045901;28;20048;-82
2021/12/06 07:36:33;;;;;;;57.28;21.60;;;2.40;99.90;;;;;;5045403;28;20041;-82
2021/12/06 07:38:59;;;;;;;57.45;20.25;;;2.40;99.90;;;;;;5045564;28;20089;-81
2021/12/06 07:41:28;;;;;;;53.78;17.88;;;2.50;99.90;;;;;;5045820;28;20033;-82
2021/12/06 07:43:55;;;;;;;53.42;17.42;;;2.40;99.90;;;;;;5045726;28;20048;-82
2021/12/06 07:46:20;;;;;;;45.58;16.25;;;2.40;99.90;;;;;;5042046;28;20037;-83
2021/12/06 07:48:52;;;;;;;47.65;17.13;;;2.40;99.90;;;;;;5036532;28;20098;-82
2021/12/06 07:51:25;;;;;;;49.10;18.63;;;2.40;99.90;;;;;;5024640;28;20076;-82
2021/12/06 07:53:51;;;;;;;46.90;18.67;;;2.30;99.90;;;;;;5041732;28;20041;-82
2021/12/06 07:56:17;;;;;;;47.95;16.73;;;2.40;99.90;;;;;;5042599;28;20056;-82
2021/12/06 07:58:43;;;;;;;51.05;17.52;;;2.40;99.90;;;;;;5026815;28;20534;-82
2021/12/06 08:01:10;;;;;;;50.78;17.67;;;2.40;99.90;;;;;;5048602;28;20033;-82
2021/12/06 08:03:37;;;;;;;43.97;17.42;;;2.40;99.90;;;;;;5053656;28;20041;-81
2021/12/06 08:06:03;;;;;;;47.17;16.58;;;2.40;99.90;;;;;;5035623;28;20119;-81
2021/12/06 08:08:31;;;;;;;43.20;17.23;;;2.40;99.90;;;;;;5035432;28;20143;-81
2021/12/06 08:11:01;;;;;;;44.67;17.75;;;2.40;99.90;;;;;;5052357;28;20045;-81
2021/12/06 08:13:30;;;;;;;58.60;18.27;;;2.40;99.90;;;;;;5051732;28;20045;-81
2021/12/06 08:15:58;;;;;;;44.80;18.67;;;2.40;99.90;;;;;;5049466;28;20051;-81
2021/12/06 08:18:24;;;;;;;42.17;17.75;;;2.40;99.90;;;;;;5050429;28;20033;-81
2021/12/06 08:20:51;;;;;;;48.10;18.88;;;2.40;99.90;;;;;;5035027;28;20048;-81
2021/12/06 08:23:17;;;;;;;47.35;17.35;;;2.50;99.90;;;;;;5050310;28;20045;-81
2021/12/06 08:25:46;;;;;;;45.83;18.00;;;2.40;99.90;;;;;;5050737;28;20033;-81
2021/12/06 08:28:12;;;;;;;54.78;19.40;;;2.50;99.90;;;;;;5052101;28;20094;-81
2021/12/06 08:30:38;;;;;;;54.10;19.65;;;2.40;99.90;;;;;;5049705;28;20091;-82
2021/12/06 08:33:05;;;;;;;62.90;21.88;;;2.50;99.90;;;;;;5052045;28;20049;-81
2021/12/06 08:35:31;;;;;;;61.75;22.90;;;2.40;99.90;;;;;;5047768;28;20079;-81
2021/12/06 08:37:59;;;;;;;72.07;22.85;;;2.50;99.90;;;;;;5048540;28;20098;-82
2021/12/06 08:40:26;;;;;;;72.03;24.83;;;2.40;99.90;;;;;;5031356;28;20551;-82
2021/12/06 08:42:52;;;;;;;72.88;24.60;;;2.40;99.90;;;;;;5049382;28;20068;-82
2021/12/06 08:45:18;;;;;;;72.18;24.38;;;2.40;99.90;;;;;;5048868;28;20048;-82
2021/12/06 08:47:44;;;;;;;68.78;22.92;;;2.40;99.90;;;;;;5051598;28;20040;-81
2021/12/06 08:50:15;;;;;;;63.45;22.75;;;2.40;99.90;;;;;;5048011;28;20043;-82
2021/12/06 08:52:41;;;;;;;62.75;19.48;;;2.40;99.90;;;;;;5033186;28;20051;-82
2021/12/06 08:55:09;;;;;;;55.20;20.27;;;2.40;99.90;;;;;;5049375;28;20040;-82
2021/12/06 08:57:35;;;;;;;57.88;20.52;;;2.40;99.90;;;;;;5035408;28;20104;-82
2021/12/06 09:00:03;;;;;;;51.60;18.45;;;2.40;99.90;;;;;;5051127;28;20044;-82
2021/12/06 09:02:28;;;;;;;42.35;15.80;;;2.50;99.90;;;;;;5049236;28;20048;-81
2021/12/06 09:04:54;;;;;;;40.40;16.45;;;2.50;99.90;;;;;;5049990;28;20033;-81
2021/12/06 09:07:19;;;;;;;45.22;15.48;;;2.50;99.90;;;;;;5033422;28;20040;-82
2021/12/06 09:09:49;;;;;;;47.38;15.95;;;2.50;99.90;;;;;;5051326;28;20068;-82
2021/12/06 09:12:21;;;;;;;39.30;15.05;;;2.60;99.90;;;;;;5052092;28;20044;-81
2021/12/06 09:14:47;;;;;;;;;;;2.60;99.90;;;;;;5051553;28;20056;-81
2021/12/06 09:17:14;;;;;;;45.47;15.38;;;2.60;99.90;;;;;;5052929;28;19916;-82
2021/12/06 09:19:40;;;;;;;36.95;14.82;;;2.70;99.90;;;;;;5045724;28;20503;-79
2021/12/06 09:22:05;;;;;;;39.15;13.98;;;2.70;99.90;;;;;;5045101;28;20033;-82
2021/12/06 09:24:34;;;;;;;41.55;15.15;;;2.80;99.90;;;;;;5041842;28;20048;-82
2021/12/06 09:27:01;;;;;;;37.10;13.07;;;2.80;99.90;;;;;;5024926;28;20071;-82
2021/12/06 09:29:27;;;;;;;34.03;13.45;;;2.80;99.90;;;;;;5038692;28;20045;-82
2021/12/06 09:31:54;;;;;;;30.92;12.00;;;2.80;99.90;;;;;;5043458;28;20496;-82
2021/12/06 09:34:20;;;;;;;30.98;13.57;;;2.80;99.90;;;;;;5018219;28;20037;-80
2021/12/06 09:36:46;;;;;;;33.30;12.73;;;2.80;99.90;;;;;;5038197;28;20036;-80
2021/12/06 09:39:15;;;;;;;24.08;10.00;;;2.70;99.90;;;;;;5022103;28;20120;-81
2021/12/06 09:41:42;;;;;;;35.65;12.90;;;2.70;99.90;;;;;;5038805;28;20039;-79
2021/12/06 09:44:09;;;;;;;26.55;10.55;;;2.70;99.90;;;;;;5058660;28;20102;-82
2021/12/06 09:46:37;;;;;;;34.47;13.60;;;2.70;99.90;;;;;;5039903;28;20041;-82
2021/12/06 09:49:10;;;;;;;24.05;10.60;;;2.70;99.90;;;;;;5040038;28;20043;-82
2021/12/06 09:51:37;;;;;;;28.33;10.60;;;2.80;99.90;;;;;;5024396;28;20094;-82
2021/12/06 09:54:04;;;;;;;30.73;11.35;;;2.80;99.90;;;;;;5048067;28;20506;-81
2021/12/06 09:56:38;;;;;;;29.08;11.48;;;2.80;99.90;;;;;;5048500;28;20040;-81
2021/12/06 09:59:09;;;;;;;26.48;10.20;;;2.80;99.90;;;;;;5031829;28;20043;-81
2021/12/06 10:01:42;;;;;;;28.95;11.25;;;2.80;99.90;;;;;;5031355;28;20048;-80
2021/12/06 10:04:10;;;;;;;35.65;10.65;;;2.80;99.90;;;;;;5036300;28;20056;-80
2021/12/06 10:06:35;;;;;;;27.73;11.02;;;2.80;99.90;;;;;;5028545;28;20056;-81
2021/12/06 10:09:06;;;;;;;25.83;10.57;;;2.80;99.90;;;;;;5030747;28;20444;-81
2021/12/06 10:11:32;;;;;;;25.95;11.23;;;2.90;99.90;;;;;;5033934;28;20052;-81
2021/12/06 10:13:59;;;;;;;33.80;12.57;;;2.90;99.90;;;;;;5051388;28;20052;-81
2021/12/06 10:16:25;;;;;;;33.90;12.80;;;2.90;99.90;;;;;;5051141;28;20065;-81
2021/12/06 10:18:52;;;;;;;25.30;9.88;;;2.90;99.90;;;;;;5035088;28;20029;-81
2021/12/06 10:21:18;;;;;;;29.80;12.05;;;3.00;99.90;;;;;;5051440;28;20621;-81
2021/12/06 10:23:44;;;;;;;32.40;13.00;;;3.00;99.90;;;;;;5069072;28;20078;-81
2021/12/06 10:26:13;;;;;;;34.88;12.48;;;3.00;99.90;;;;;;5049055;28;20041;-82
2021/12/06 10:28:42;;;;;;;33.08;12.65;;;3.00;99.90;;;;;;5051495;28;20056;-81
2021/12/06 10:31:11;;;;;;;33.42;14.30;;;3.00;99.90;;;;;;5061427;28;20036;-82
2021/12/06 10:33:40;;;;;;;40.15;15.50;;;3.00;99.90;;;;;;5061633;28;20029;-82
2021/12/06 10:36:09;;;;;;;34.22;12.18;;;3.00;99.90;;;;;;5056133;28;20067;-82
2021/12/06 10:38:43;;;;;;;42.03;14.68;;;3.00;99.90;;;;;;5051538;28;20097;-83
2021/12/06 10:41:11;;;;;;;38.13;14.85;;;3.00;99.90;;;;;;5051139;28;20037;-81
2021/12/06 10:43:38;;;;;;;36.88;13.90;;;2.90;99.90;;;;;;5035179;28;20052;-81
2021/12/06 10:46:07;;;;;;;41.65;14.30;;;2.90;99.90;;;;;;5045918;28;20041;-80
2021/12/06 10:48:35;;;;;;;43.95;14.98;;;2.90;99.90;;;;;;5040489;28;20048;-81
2021/12/06 10:51:13;;;;;;;44.83;14.32;;;3.00;99.90;;;;;;5040554;28;20470;-80
2021/12/06 10:53:47;;;;;;;39.72;13.40;;;3.00;99.90;;;;;;5040825;28;20077;-81
2021/12/06 10:56:21;;;;;;;34.15;14.15;;;3.00;99.90;;;;;;5042389;28;20119;-80
2021/12/06 10:58:53;;;;;;;34.63;12.63;;;3.00;99.90;;;;;;5023207;28;20068;-80
2021/12/06 11:01:23;;;;;;;35.00;13.15;;;3.00;99.90;;;;;;5037230;28;20399;-84
2021/12/06 11:03:51;;;;;;;34.13;13.32;;;3.00;99.90;;;;;;5035424;28;20041;-85
2021/12/06 11:06:21;;;;;;;37.30;13.55;;;3.10;99.90;;;;;;5019561;28;20045;-85
2021/12/06 11:08:49;;;;;;;28.95;12.07;;;3.00;99.90;;;;;;5036537;28;20077;-84
2021/12/06 11:11:19;;;;;;;35.10;13.00;;;3.00;99.90;;;;;;5035160;28;20084;-84
2021/12/06 11:13:49;;;;;;;38.15;14.85;;;3.00;99.90;;;;;;5035373;28;20168;-84
2021/12/06 11:16:21;;;;;;;36.13;12.95;;;3.00;99.90;;;;;;5036093;28;20049;-85
2021/12/06 11:19:06;;;;;;;;;;;3.00;99.90;;;;;;5035458;28;20098;-81
2021/12/06 11:21:42;;;;;;;38.75;12.75;;;3.00;99.90;;;;;;5018103;28;20379;-81
2021/12/06 11:24:18;;;;;;;33.60;12.93;;;3.00;99.90;;;;;;5018267;28;20376;-81
2021/12/06 11:26:46;;;;;;;33.45;12.60;;;3.10;99.90;;;;;;5038099;28;20041;-82
2021/12/06 11:29:17;;;;;;;33.30;11.80;;;3.10;99.90;;;;;;5036615;28;20044;-81
2021/12/06 11:31:55;;;;;;;34.42;13.38;;;3.10;99.90;;;;;;5026292;28;20040;-81
2021/12/06 11:34:24;;;;;;;33.70;13.10;;;3.20;99.90;;;;;;5046571;28;20056;-82
2021/12/06 11:36:50;;;;;;;35.05;12.32;;;3.20;99.90;;;;;;5046991;28;20048;-81
2021/12/06 11:39:19;;;;;;;32.08;12.90;;;3.20;99.90;;;;;;5045488;28;20115;-80
2021/12/06 11:41:50;;;;;;;33.08;11.95;;;3.30;99.90;;;;;;5043672;28;20415;-81
2021/12/06 11:44:21;;;;;;;33.70;12.70;;;3.30;99.90;;;;;;5045679;28;20045;-80
2021/12/06 11:46:53;;;;;;;40.33;13.98;;;3.30;99.90;;;;;;5045172;28;20040;-80
2021/12/06 11:49:21;;;;;;;36.55;14.18;;;3.30;99.90;;;;;;5040422;28;20154;-83
2021/12/06 11:51:49;;;;;;;33.22;13.50;;;3.30;99.90;;;;;;5040154;28;20041;-83
2021/12/06 11:54:15;;;;;;;33.25;13.05;;;3.30;99.90;;;;;;5023457;28;20044;-82
2021/12/06 11:56:44;;;;;;;35.38;14.25;;;3.30;99.90;;;;;;5039746;28;20044;-83
2021/12/06 11:59:13;;;;;;;41.45;15.60;;;3.20;99.90;;;;;;5023341;28;20395;-83
2021/12/06 12:01:45;;;;;;;41.10;14.00;;;3.20;99.90;;;;;;5038624;28;20036;-82
2021/12/06 12:04:17;;;;;;;45.70;14.98;;;3.20;99.90;;;;;;5022777;28;20037;-83
2021/12/06 12:06:46;;;;;;;43.35;15.25;;;3.20;99.90;;;;;;5028261;28;20449;-81
2021/12/06 12:09:30;;;;;;;42.38;16.30;;;3.10;99.90;;;;;;5048399;28;20095;-81
2021/12/06 12:12:10;;;;;;;39.58;13.85;;;3.20;99.90;;;;;;5049650;28;20507;-81
2021/12/06 12:14:49;;;;;;;43.30;14.88;;;3.20;99.90;;;;;;5066700;28;20049;-81
2021/12/06 12:17:17;;;;;;;42.30;15.93;;;3.20;99.90;;;;;;5066456;28;20029;-80
2021/12/06 12:19:44;;;;;;;40.03;15.02;;;3.20;99.90;;;;;;5045252;28;20047;-83
2021/12/06 12:22:11;;;;;;;52.72;16.58;;;3.20;99.90;;;;;;5039743;28;20033;-83
2021/12/06 12:24:39;;;;;;;51.45;17.92;;;3.20;99.90;;;;;;5021384;28;20415;-83
2021/12/06 12:29:51;;;;;;;53.67;18.70;;;3.20;99.90;;;;;;5044917;28;20387;-80
2021/12/06 12:32:17;;;;;;;48.42;18.10;;;3.20;99.90;;;;;;5043580;28;20036;-81
2021/12/06 12:34:46;;;;;;;49.95;17.73;;;3.20;99.90;;;;;;5043577;28;20037;-81
2021/12/06 12:37:14;;;;;;;52.55;18.20;;;3.30;99.90;;;;;;5025125;28;20029;-81
2021/12/06 12:39:40;;;;;;;52.83;20.17;;;3.20;99.90;;;;;;5039412;28;20125;-81
2021/12/06 12:42:07;;;;;;;58.22;19.75;;;3.30;99.90;;;;;;5043180;28;20478;-81
2021/12/06 12:44:47;;;;;;;51.45;18.35;;;3.30;99.90;;;;;;5034402;28;20446;-79
2021/12/06 12:47:21;;;;;;;46.67;17.15;;;3.30;99.90;;;;;;5020843;28;20037;-79
2021/12/06 12:49:50;;;;;;;52.65;18.60;;;3.40;99.90;;;;;;5036666;28;20153;-79
2021/12/06 12:52:32;;;;;;;60.25;19.02;;;3.40;99.90;;;;;;5037152;28;20496;-79
2021/12/06 12:54:58;;;;;;;53.90;20.40;;;3.40;99.90;;;;;;5037948;28;20086;-80
2021/12/06 12:57:37;;;;;;;50.78;19.08;;;3.40;99.90;;;;;;5038948;28;20041;-80
2021/12/06 13:00:05;;;;;;;63.58;21.77;;;3.40;99.90;;;;;;5039422;28;20450;-80